Accueil
METAR-TAF:

METAR-TAF

Aéroports :

Siegen, Allemagne

latitude: 50-42-28N, longitude: 008-04-59E, altitude: 602 m

Observation

Le bulletin a été fait il y a 4 heures et 13 minutes, à 18:50 UTC
Vent 5 kt de ouest
Température 12°C
Humidité 82%
Pression 1024 hPa
Visibilité 10 km ou plus
pas de nuages en-dessous de 1500 mètres et pas de cumulonimbus.

METAR: EDGS 201850Z 28005KT CAVOK 12/09 Q1024

Heure: 01:03 (23:03 UTC)

Prévision

Le bulletin a été fait il y a 6 heures et 3 minutes, à 17:00 UTC
Prévision valable du 20 à 18 UTC au 21 à 03 UTC
Vent 7 kt de ouest
Visibilité 10 km ou plus
Quelques nuages à une hauteur de 2500 ft

TAF: EDGS 201700Z 2018/2103 28007KT 9999 FEW025

Observations et prévisions météorologiques de plus de 4000 aéroports (messages METAR et TAF).

Les stations disponibles sont représentées par des disques jaunes et rouges sur la carte.

Passer la souris dessus pour voir le nom de la station.

Cliquer dessus pour voir les observations et prévisions météorologiques.

Pour changer de carte: cliquez sur les boutons verts avec une croix noire pour zoomer, sur le bouton vert avec un tiret pour effectuer un zoom arrière, ou sur les flèches vertes pour les cartes adjacentes.


METAR-TAF: